»·PEaware :: ASA238 KSFO-KLAS

ASA238 :: KSFO-KLAS

FLIGHT INFORMATION

Flight Status: Arrived
Operator:
Alaska Airlines
More flights by this operator :: More flights under this callsign
Pilot: Selim S. (41656)
Aircraft: AIRBUS A320
(A320)
More flights by this aircraft type
Origin: KSFO San Francisco Intl
United States
Destination: KLAS Harry Reid Intl
United States
More flights between these airports :: More routes between these airports
Route: SSTIK5 NTELL Q174 FLCHR COKTL2
File this flight plan on PilotEdge
Remarks:
Altitude:
(Current/Filed)
35,000ft
Speed:
(Current/Filed)
290kts
Departed: 24-Sep-22 08:24 PM
Arrived: 24-Sep-22 09:36 PM
Distance/Time
Traveled:
359nm/1:12
Distance/Time
To Go:
Arrived

Flight Plot

Page will automatically refresh every two minutes.

Flight plan parsing failed; only flown route is shown


Map Options




Map Legend


Flown Route
Filed Route
Departure Airport
Arrival Airport
Navaid (VOR, NDB)
Fix

Horizontal Profiles

Position Reports

Time Latitude Longitude Heading Altitude Ground
Speed
24-Sep-22 19:40 37.617538 -122.380397 280 22ft 0kts
24-Sep-22 19:40 37.617538 -122.380397 280 22ft 0kts
24-Sep-22 19:42 37.617538 -122.380397 280 22ft 0kts
24-Sep-22 19:43 37.617538 -122.380397 280 22ft 0kts
24-Sep-22 19:44 37.617538 -122.380397 280 22ft 0kts
24-Sep-22 19:44 37.617538 -122.380397 280 22ft 0kts
24-Sep-22 19:45 37.617538 -122.380397 280 22ft 0kts
24-Sep-22 19:46 37.617538 -122.380397 280 22ft 0kts
24-Sep-22 19:48 37.617538 -122.380397 280 22ft 0kts
24-Sep-22 19:49 37.617538 -122.380397 280 22ft 0kts
24-Sep-22 19:49 37.617538 -122.380397 280 22ft 0kts
24-Sep-22 19:50 37.617538 -122.380397 280 22ft 0kts
24-Sep-22 19:51 37.617538 -122.380397 280 22ft 0kts
24-Sep-22 19:52 37.617538 -122.380397 280 22ft 0kts
24-Sep-22 19:53 37.617538 -122.380397 280 22ft 0kts
24-Sep-22 19:54 37.617538 -122.380397 280 22ft 0kts
24-Sep-22 19:55 37.617538 -122.380397 280 22ft 0kts
24-Sep-22 19:56 37.617538 -122.380397 280 22ft 0kts
24-Sep-22 19:57 37.617538 -122.380397 280 22ft 0kts
24-Sep-22 19:58 37.617538 -122.380397 280 22ft 0kts
24-Sep-22 19:59 37.617538 -122.380397 280 22ft 0kts
24-Sep-22 20:00 37.617538 -122.380397 280 22ft 0kts
24-Sep-22 20:01 37.617538 -122.380397 280 22ft 0kts
24-Sep-22 20:02 37.617538 -122.380397 280 22ft 0kts
24-Sep-22 20:03 37.617538 -122.380397 280 22ft 0kts
24-Sep-22 20:04 37.617538 -122.380397 280 22ft 0kts
24-Sep-22 20:05 37.617538 -122.380397 280 22ft 0kts
24-Sep-22 20:06 37.617538 -122.380397 280 22ft 0kts
24-Sep-22 20:07 37.617538 -122.380397 280 22ft 0kts
24-Sep-22 20:08 37.617538 -122.380397 280 22ft 0kts
24-Sep-22 20:09 37.617538 -122.380397 280 22ft 0kts
24-Sep-22 20:10 37.617538 -122.380397 280 22ft 0kts
24-Sep-22 20:11 37.617538 -122.380397 280 22ft 0kts
24-Sep-22 20:12 37.617467 -122.379841 262 22ft 2kts
24-Sep-22 20:13 37.617851 -122.379498 164 22ft 1kts
24-Sep-22 20:14 37.617901 -122.379518 165 22ft 0kts
24-Sep-22 20:15 37.617900 -122.379517 165 22ft 0kts
24-Sep-22 20:16 37.617895 -122.379516 165 22ft 0kts
24-Sep-22 20:17 37.612444 -122.382328 208 22ft 35kts
24-Sep-22 20:18 37.606321 -122.384119 133 22ft 29kts
24-Sep-22 20:19 37.605977 -122.383634 129 22ft 0kts
24-Sep-22 20:20 37.605895 -122.383028 73 22ft 10kts
24-Sep-22 20:21 37.606969 -122.382192 27 22ft 0kts
24-Sep-22 20:22 37.606986 -122.382181 27 22ft 1kts
24-Sep-22 20:23 37.614463 -122.378608 27 22ft 122kts
24-Sep-22 20:24 37.657209 -122.358203 350 2322ft 186kts
24-Sep-22 20:25 37.703372 -122.394185 272 4137ft 249kts
24-Sep-22 20:26 37.653574 -122.444837 189 7123ft 269kts
24-Sep-22 20:27 37.578047 -122.458183 187 9801ft 279kts
24-Sep-22 20:28 37.502196 -122.454014 148 10038ft 282kts
24-Sep-22 20:29 37.464983 -122.361655 106 11116ft 338kts
24-Sep-22 20:30 37.439638 -122.243700 107 13368ft 357kts
24-Sep-22 20:31 37.413335 -122.122482 107 14985ft 364kts
24-Sep-22 20:32 37.386343 -121.999888 107 15301ft 369kts
24-Sep-22 20:33 37.358607 -121.873798 107 17270ft 381kts
24-Sep-22 20:34 37.329683 -121.743487 108 19076ft 393kts
24-Sep-22 20:35 37.299793 -121.609596 108 20696ft 404kts
24-Sep-22 20:36 37.268847 -121.471864 109 22193ft 415kts
24-Sep-22 20:37 37.236983 -121.330998 109 23570ft 424kts
24-Sep-22 20:38 37.204353 -121.187616 110 24897ft 430kts
24-Sep-22 20:39 37.171040 -121.042121 110 25957ft 441kts
24-Sep-22 20:40 37.136576 -120.892539 110 26880ft 452kts
24-Sep-22 20:41 37.101143 -120.739797 110 27818ft 460kts
24-Sep-22 20:42 37.064993 -120.584768 110 28658ft 469kts
24-Sep-22 20:43 37.027972 -120.427116 110 29532ft 475kts
24-Sep-22 20:44 36.990287 -120.267706 110 30349ft 479kts
24-Sep-22 20:45 36.952483 -120.108880 110 31381ft 476kts
24-Sep-22 20:46 36.915261 -119.950024 104 32248ft 479kts
24-Sep-22 20:47 36.933639 -119.785455 68 32959ft 494kts
24-Sep-22 20:48 36.985847 -119.626786 68 33703ft 494kts
24-Sep-22 20:49 37.037886 -119.466693 68 34230ft 499kts
24-Sep-22 20:50 37.089930 -119.305380 69 34818ft 502kts
24-Sep-22 20:51 37.142148 -119.142741 68 35287ft 504kts
24-Sep-22 20:52 37.194362 -118.979847 68 35398ft 503kts
24-Sep-22 20:53 37.245875 -118.817990 67 35375ft 497kts
24-Sep-22 20:54 37.282192 -118.652882 85 35296ft 493kts
24-Sep-22 20:55 37.295205 -118.481530 84 35203ft 491kts
24-Sep-22 20:56 37.308070 -118.310842 85 35203ft 492kts
24-Sep-22 20:57 37.320675 -118.140302 85 35227ft 493kts
24-Sep-22 20:58 37.333106 -117.968590 85 35243ft 494kts
24-Sep-22 20:59 37.345337 -117.796387 85 35261ft 495kts
24-Sep-22 21:00 37.357203 -117.624283 86 35257ft 496kts
24-Sep-22 21:01 37.369019 -117.451539 85 35315ft 496kts
24-Sep-22 21:02 37.367952 -117.280072 110 35348ft 490kts
24-Sep-22 21:03 37.293909 -117.143262 137 35356ft 473kts
24-Sep-22 21:04 37.205999 -117.021047 136 35318ft 471kts
24-Sep-22 21:05 37.118039 -116.899243 136 34517ft 473kts
24-Sep-22 21:06 37.023599 -116.788172 141 33567ft 457kts
24-Sep-22 21:07 36.931271 -116.684214 140 31560ft 436kts
24-Sep-22 21:08 36.840680 -116.582642 139 30401ft 442kts
24-Sep-22 21:09 36.749941 -116.481058 139 29447ft 436kts
24-Sep-22 21:10 36.661353 -116.382070 139 28085ft 422kts
24-Sep-22 21:11 36.574786 -116.285899 139 26127ft 414kts
24-Sep-22 21:12 36.489895 -116.191823 138 24175ft 406kts
24-Sep-22 21:13 36.406284 -116.099424 138 22216ft 398kts
24-Sep-22 21:14 36.324639 -116.009447 137 20278ft 390kts
24-Sep-22 21:15 36.247001 -115.921912 128 19106ft 359kts
24-Sep-22 21:16 36.187493 -115.827714 126 17628ft 340kts
24-Sep-22 21:17 36.133811 -115.734455 108 16241ft 327kts
24-Sep-22 21:18 36.101908 -115.630323 108 14874ft 320kts
24-Sep-22 21:19 36.070421 -115.528568 109 13644ft 314kts
24-Sep-22 21:20 36.039497 -115.428948 109 12238ft 306kts
24-Sep-22 21:21 36.015127 -115.333136 92 11456ft 276kts
24-Sep-22 21:22 36.010188 -115.243730 93 10761ft 251kts
24-Sep-22 21:23 36.005307 -115.158380 92 9639ft 247kts
24-Sep-22 21:24 36.000359 -115.074461 92 8696ft 245kts
24-Sep-22 21:25 35.999138 -114.990926 88 8016ft 243kts
24-Sep-22 21:26 35.998906 -114.910105 87 7542ft 223kts
24-Sep-22 21:27 35.999073 -114.834767 78 6682ft 216kts
24-Sep-22 21:28 36.038202 -114.823479 294 5590ft 191kts
24-Sep-22 21:29 36.054314 -114.881896 290 4802ft 168kts
24-Sep-22 21:30 36.068260 -114.933312 290 4781ft 152kts
24-Sep-22 21:31 36.073815 -114.985201 270 4297ft 154kts
24-Sep-22 21:32 36.073644 -115.037982 270 3443ft 152kts
24-Sep-22 21:33 36.073662 -115.090200 269 2648ft 152kts
24-Sep-22 21:34 36.073642 -115.140410 271 2087ft 103kts
24-Sep-22 21:35 36.074884 -115.150831 306 2122ft 0kts
24-Sep-22 21:36 36.074884 -115.150831 306 2122ft 0kts
24-Sep-22 21:37 36.077044 -115.152334 335 2124ft 0kts
24-Sep-22 21:38 36.081764 -115.153751 61 2119ft 14kts
24-Sep-22 21:39 36.082269 -115.153179 19 2116ft 0kts
24-Sep-22 21:40 36.082269 -115.153179 19 2116ft 0kts
24-Sep-22 21:41 36.082269 -115.153179 19 2116ft 0kts
24-Sep-22 21:42 36.082269 -115.153179 19 2116ft 0kts
24-Sep-22 21:43 36.082268 -115.153179 19 2116ft 0kts
24-Sep-22 21:44 36.082268 -115.153179 19 2116ft 0kts
24-Sep-22 21:45 36.082268 -115.153179 19 2116ft 0kts
24-Sep-22 21:46 36.082268 -115.153179 19 2116ft 0kts
24-Sep-22 21:47 36.082268 -115.153179 19 2116ft 0kts
24-Sep-22 21:48 36.082268 -115.153179 19 2116ft 0kts
24-Sep-22 21:49 36.082268 -115.153179 19 2116ft 0kts

Navigation Log

Ident Type
Flight plan parsing failed, navigation log unavailable